AAY1604 KAUS-KPVU
Flight info
| Callsign | AAY1604 |
|---|---|
| Flight time | 2h 28m |
| Altitude | 36000 |
| Route | AEROZ2 SJT CME HVE |
| Aircraft | A320/M-SDFGHIRWYZ/SB1 |
Departure
| Time | 2026-04-21 00:33 |
|---|---|
| Airport | Austin Bergstrom International Airport (KAUS) |
Arrival
| Time | 2026-04-21 03:01 |
|---|---|
| Airport | Provo Municipal Airport (KPVU) |
| Time | Latitude | Longitude | Altitude | Speed | Heading |
|---|---|---|---|---|---|
| 2026-04-20 23:54 | 30.20243 | -97.67139 | 522 ft | 0 kts | 109° |
| 2026-04-21 00:20 | 30.20245 | -97.67148 | 522 ft | 4 kts | 109° |
| 2026-04-21 00:20 | 30.20254 | -97.67177 | 522 ft | 4 kts | 113° |
| 2026-04-21 00:20 | 30.20268 | -97.67202 | 523 ft | 4 kts | 146° |
| 2026-04-21 00:21 | 30.20288 | -97.67211 | 523 ft | 1 kts | 178° |
| 2026-04-21 00:23 | 30.20262 | -97.67210 | 523 ft | 8 kts | 179° |
| 2026-04-21 00:23 | 30.20202 | -97.67209 | 522 ft | 9 kts | 179° |
| 2026-04-21 00:23 | 30.20131 | -97.67207 | 521 ft | 10 kts | 173° |
| 2026-04-21 00:23 | 30.20097 | -97.67137 | 520 ft | 12 kts | 88° |
| 2026-04-21 00:24 | 30.20101 | -97.67032 | 519 ft | 14 kts | 89° |
| 2026-04-21 00:24 | 30.20019 | -97.66988 | 516 ft | 16 kts | 178° |
| 2026-04-21 00:24 | 30.19903 | -97.66985 | 514 ft | 15 kts | 179° |
| 2026-04-21 00:24 | 30.19833 | -97.66953 | 512 ft | 11 kts | 115° |
| 2026-04-21 00:25 | 30.19829 | -97.66852 | 509 ft | 14 kts | 90° |
| 2026-04-21 00:25 | 30.19832 | -97.66734 | 507 ft | 16 kts | 88° |
| 2026-04-21 00:25 | 30.19835 | -97.66600 | 506 ft | 17 kts | 88° |
| 2026-04-21 00:25 | 30.19838 | -97.66467 | 505 ft | 17 kts | 88° |
| 2026-04-21 00:26 | 30.19841 | -97.66322 | 502 ft | 19 kts | 91° |
| 2026-04-21 00:26 | 30.19843 | -97.66159 | 497 ft | 21 kts | 87° |
| 2026-04-21 00:26 | 30.19847 | -97.66009 | 495 ft | 15 kts | 88° |
| 2026-04-21 00:26 | 30.19827 | -97.65912 | 491 ft | 11 kts | 145° |
| 2026-04-21 00:27 | 30.19755 | -97.65901 | 488 ft | 10 kts | 179° |
| 2026-04-21 00:27 | 30.19677 | -97.65899 | 491 ft | 12 kts | 178° |
| 2026-04-21 00:27 | 30.19583 | -97.65896 | 490 ft | 14 kts | 179° |
| 2026-04-21 00:27 | 30.19475 | -97.65893 | 487 ft | 16 kts | 178° |
| 2026-04-21 00:28 | 30.19398 | -97.65891 | 489 ft | 16 kts | 179° |
| 2026-04-21 00:28 | 30.19280 | -97.65888 | 489 ft | 18 kts | 179° |
| 2026-04-21 00:28 | 30.19146 | -97.65884 | 496 ft | 19 kts | 178° |
| 2026-04-21 00:28 | 30.19016 | -97.65881 | 495 ft | 18 kts | 179° |
| 2026-04-21 00:29 | 30.18893 | -97.65878 | 488 ft | 17 kts | 179° |
| 2026-04-21 00:29 | 30.18772 | -97.65875 | 484 ft | 17 kts | 179° |
| 2026-04-21 00:29 | 30.18651 | -97.65871 | 487 ft | 17 kts | 178° |
| 2026-04-21 00:29 | 30.18531 | -97.65869 | 481 ft | 17 kts | 179° |
| 2026-04-21 00:30 | 30.18413 | -97.65866 | 480 ft | 17 kts | 178° |
| 2026-04-21 00:30 | 30.18302 | -97.65862 | 477 ft | 15 kts | 179° |
| 2026-04-21 00:30 | 30.18206 | -97.65860 | 477 ft | 12 kts | 179° |
| 2026-04-21 00:30 | 30.18120 | -97.65858 | 475 ft | 14 kts | 178° |
| 2026-04-21 00:31 | 30.18023 | -97.65855 | 474 ft | 12 kts | 179° |
| 2026-04-21 00:31 | 30.17950 | -97.65854 | 478 ft | 9 kts | 175° |
| 2026-04-21 00:31 | 30.17920 | -97.65811 | 476 ft | 9 kts | 98° |
| 2026-04-21 00:31 | 30.17921 | -97.65748 | 484 ft | 7 kts | 78° |
| 2026-04-21 00:32 | 30.17993 | -97.65729 | 477 ft | 17 kts | 357° |
| 2026-04-21 00:32 | 30.18278 | -97.65735 | 478 ft | 76 kts | 359° |
| 2026-04-21 00:32 | 30.19018 | -97.65755 | 491 ft | 133 kts | 358° |
| 2026-04-21 00:32 | 30.20020 | -97.65783 | 923 ft | 148 kts | 358° |
| 2026-04-21 00:33 | 30.21037 | -97.65817 | 1670 ft | 144 kts | 358° |
| 2026-04-21 00:33 | 30.22034 | -97.65918 | 2343 ft | 144 kts | 345° |
| 2026-04-21 00:33 | 30.22886 | -97.66583 | 2685 ft | 165 kts | 309° |
| 2026-04-21 00:33 | 30.23348 | -97.67907 | 2929 ft | 194 kts | 294° |
| 2026-04-21 00:34 | 30.23873 | -97.69470 | 3179 ft | 219 kts | 296° |
| 2026-04-21 00:34 | 30.24504 | -97.71147 | 3510 ft | 242 kts | 296° |
| 2026-04-21 00:34 | 30.25235 | -97.73043 | 3895 ft | 267 kts | 293° |
| 2026-04-21 00:34 | 30.26008 | -97.75074 | 4458 ft | 282 kts | 292° |
| 2026-04-21 00:35 | 30.26783 | -97.77148 | 5285 ft | 287 kts | 292° |
| 2026-04-21 00:35 | 30.27571 | -97.79289 | 6168 ft | 291 kts | 291° |
| 2026-04-21 00:35 | 30.28363 | -97.81453 | 7039 ft | 294 kts | 291° |
| 2026-04-21 00:35 | 30.29164 | -97.83648 | 7877 ft | 298 kts | 291° |
| 2026-04-21 00:36 | 30.29972 | -97.85877 | 8720 ft | 302 kts | 291° |
| 2026-04-21 00:36 | 30.30787 | -97.88131 | 9535 ft | 305 kts | 292° |
| 2026-04-21 00:36 | 30.31612 | -97.90406 | 10324 ft | 310 kts | 291° |
| 2026-04-21 00:36 | 30.32474 | -97.92791 | 10608 ft | 333 kts | 291° |
| 2026-04-21 00:37 | 30.33384 | -97.95318 | 11134 ft | 344 kts | 290° |
| 2026-04-21 00:37 | 30.34308 | -97.97880 | 11969 ft | 345 kts | 290° |
| 2026-04-21 00:37 | 30.35229 | -98.00430 | 12860 ft | 342 kts | 290° |
| 2026-04-21 00:37 | 30.36147 | -98.02969 | 13657 ft | 343 kts | 290° |
| 2026-04-21 00:38 | 30.37064 | -98.05518 | 14397 ft | 344 kts | 290° |
| 2026-04-21 00:38 | 30.37985 | -98.08083 | 15108 ft | 346 kts | 290° |
| 2026-04-21 00:38 | 30.38913 | -98.10661 | 15799 ft | 348 kts | 290° |
| 2026-04-21 00:38 | 30.39847 | -98.13255 | 16473 ft | 350 kts | 290° |
| 2026-04-21 00:39 | 30.40786 | -98.15868 | 17107 ft | 353 kts | 290° |
| 2026-04-21 00:39 | 30.41732 | -98.18503 | 17741 ft | 355 kts | 290° |
| 2026-04-21 00:39 | 30.42684 | -98.21150 | 18338 ft | 357 kts | 290° |
| 2026-04-21 00:39 | 30.43638 | -98.23811 | 18920 ft | 360 kts | 290° |
| 2026-04-21 00:40 | 30.44601 | -98.26501 | 19471 ft | 363 kts | 290° |
| 2026-04-21 00:40 | 30.45573 | -98.29214 | 19998 ft | 366 kts | 290° |
| 2026-04-21 00:40 | 30.46627 | -98.31916 | 20522 ft | 370 kts | 293° |
| 2026-04-21 00:40 | 30.47778 | -98.34599 | 21027 ft | 373 kts | 294° |
| 2026-04-21 00:41 | 30.48981 | -98.37280 | 21508 ft | 376 kts | 295° |
| 2026-04-21 00:41 | 30.50205 | -98.39978 | 21978 ft | 379 kts | 295° |
| 2026-04-21 00:41 | 30.51430 | -98.42697 | 22430 ft | 382 kts | 295° |
| 2026-04-21 00:41 | 30.52655 | -98.45449 | 22876 ft | 385 kts | 294° |
| 2026-04-21 00:42 | 30.53876 | -98.48229 | 23320 ft | 388 kts | 294° |
| 2026-04-21 00:42 | 30.55096 | -98.51032 | 23754 ft | 391 kts | 294° |
| 2026-04-21 00:42 | 30.56321 | -98.53860 | 24165 ft | 394 kts | 294° |
| 2026-04-21 00:42 | 30.57555 | -98.56708 | 24575 ft | 396 kts | 294° |
| 2026-04-21 00:43 | 30.58795 | -98.59571 | 24984 ft | 399 kts | 294° |
| 2026-04-21 00:43 | 30.60043 | -98.62456 | 25401 ft | 401 kts | 293° |
| 2026-04-21 00:43 | 30.61295 | -98.65354 | 25786 ft | 403 kts | 293° |
| 2026-04-21 00:43 | 30.62555 | -98.68269 | 26187 ft | 405 kts | 293° |
| 2026-04-21 00:44 | 30.63819 | -98.71196 | 26563 ft | 407 kts | 293° |
| 2026-04-21 00:44 | 30.65090 | -98.74134 | 26942 ft | 408 kts | 293° |
| 2026-04-21 00:44 | 30.66368 | -98.77087 | 27317 ft | 410 kts | 293° |
| 2026-04-21 00:45 | 30.68941 | -98.83026 | 28002 ft | 414 kts | 293° |
| 2026-04-21 00:45 | 30.70234 | -98.86021 | 28347 ft | 415 kts | 293° |
| 2026-04-21 00:45 | 30.71529 | -98.89028 | 28681 ft | 417 kts | 292° |
| 2026-04-21 00:45 | 30.72828 | -98.92049 | 29010 ft | 419 kts | 292° |
| 2026-04-21 00:46 | 30.74136 | -98.95086 | 29331 ft | 420 kts | 292° |
| 2026-04-21 00:46 | 30.75447 | -98.98132 | 29630 ft | 422 kts | 292° |
| 2026-04-21 00:46 | 30.76760 | -99.01189 | 29906 ft | 424 kts | 292° |
| 2026-04-21 00:46 | 30.78079 | -99.04265 | 30192 ft | 426 kts | 292° |
| 2026-04-21 00:47 | 30.79400 | -99.07351 | 30475 ft | 427 kts | 292° |
| 2026-04-21 00:47 | 30.80724 | -99.10448 | 30763 ft | 428 kts | 292° |
| 2026-04-21 00:47 | 30.82053 | -99.13557 | 31036 ft | 430 kts | 292° |
| 2026-04-21 00:47 | 30.83386 | -99.16676 | 31303 ft | 431 kts | 292° |
| 2026-04-21 00:48 | 30.84719 | -99.19794 | 31646 ft | 430 kts | 292° |
| 2026-04-21 00:48 | 30.86050 | -99.22903 | 32034 ft | 428 kts | 292° |
| 2026-04-21 00:48 | 30.87372 | -99.25997 | 32401 ft | 426 kts | 292° |
| 2026-04-21 00:48 | 30.88691 | -99.29085 | 32766 ft | 425 kts | 292° |
| 2026-04-21 00:49 | 30.90002 | -99.32159 | 33130 ft | 423 kts | 292° |
| 2026-04-21 00:49 | 30.91304 | -99.35219 | 33481 ft | 421 kts | 292° |
| 2026-04-21 00:49 | 30.92602 | -99.38269 | 33820 ft | 420 kts | 292° |
| 2026-04-21 00:49 | 30.93894 | -99.41314 | 34155 ft | 418 kts | 292° |
| 2026-04-21 00:50 | 30.95179 | -99.44347 | 34494 ft | 417 kts | 292° |
| 2026-04-21 00:50 | 30.96461 | -99.47372 | 34800 ft | 416 kts | 292° |
| 2026-04-21 00:50 | 30.97741 | -99.50394 | 35107 ft | 416 kts | 292° |
| 2026-04-21 00:50 | 30.99020 | -99.53412 | 35371 ft | 415 kts | 292° |
| 2026-04-21 00:51 | 31.00298 | -99.56428 | 35617 ft | 415 kts | 292° |
| 2026-04-21 00:51 | 31.01557 | -99.59408 | 35870 ft | 415 kts | 292° |
| 2026-04-21 00:51 | 31.02845 | -99.62461 | 36109 ft | 414 kts | 292° |
| 2026-04-21 00:51 | 31.04118 | -99.65478 | 36237 ft | 415 kts | 292° |
| 2026-04-21 00:52 | 31.06654 | -99.71497 | 36266 ft | 413 kts | 291° |
| 2026-04-21 00:52 | 31.09178 | -99.77504 | 36266 ft | 412 kts | 291° |
| 2026-04-21 00:53 | 31.11702 | -99.83523 | 36256 ft | 413 kts | 291° |
| 2026-04-21 00:53 | 31.14229 | -99.89537 | 36257 ft | 413 kts | 291° |
| 2026-04-21 00:54 | 31.16750 | -99.95561 | 36259 ft | 413 kts | 291° |
| 2026-04-21 00:54 | 31.19248 | -100.01553 | 36263 ft | 414 kts | 291° |
| 2026-04-21 00:55 | 31.21772 | -100.07598 | 36269 ft | 414 kts | 291° |
| 2026-04-21 00:55 | 31.24301 | -100.13646 | 36271 ft | 414 kts | 291° |
| 2026-04-21 00:56 | 31.26820 | -100.19694 | 36270 ft | 414 kts | 291° |
| 2026-04-21 00:56 | 31.29334 | -100.25743 | 36269 ft | 414 kts | 291° |
| 2026-04-21 00:57 | 31.31839 | -100.31807 | 36265 ft | 414 kts | 291° |
| 2026-04-21 00:57 | 31.34347 | -100.37869 | 36263 ft | 414 kts | 291° |
| 2026-04-21 00:58 | 31.36854 | -100.43931 | 36261 ft | 414 kts | 291° |
| 2026-04-21 00:58 | 31.39509 | -100.49918 | 36259 ft | 416 kts | 295° |
| 2026-04-21 00:59 | 31.42475 | -100.55745 | 36251 ft | 417 kts | 296° |
| 2026-04-21 00:59 | 31.45479 | -100.61549 | 36246 ft | 416 kts | 296° |
| 2026-04-21 01:00 | 31.48408 | -100.67394 | 36240 ft | 416 kts | 295° |
| 2026-04-21 01:00 | 31.51306 | -100.73277 | 36245 ft | 417 kts | 295° |
| 2026-04-21 01:01 | 31.54200 | -100.79170 | 36248 ft | 417 kts | 295° |
| 2026-04-21 01:01 | 31.57099 | -100.85053 | 36249 ft | 417 kts | 295° |
| 2026-04-21 01:02 | 31.60001 | -100.90947 | 36242 ft | 417 kts | 295° |
| 2026-04-21 01:02 | 31.62890 | -100.96842 | 36239 ft | 417 kts | 295° |
| 2026-04-21 01:03 | 31.65783 | -101.02739 | 36239 ft | 417 kts | 295° |
| 2026-04-21 01:03 | 31.68680 | -101.08644 | 36240 ft | 417 kts | 295° |
| 2026-04-21 01:04 | 31.71579 | -101.14554 | 36235 ft | 418 kts | 295° |
| 2026-04-21 01:04 | 31.74474 | -101.20479 | 36234 ft | 418 kts | 295° |
| 2026-04-21 01:05 | 31.77365 | -101.26414 | 36234 ft | 418 kts | 295° |
| 2026-04-21 01:05 | 31.80258 | -101.32355 | 36232 ft | 419 kts | 295° |
| 2026-04-21 01:06 | 31.83152 | -101.38302 | 36232 ft | 419 kts | 295° |
| 2026-04-21 01:06 | 31.86050 | -101.44257 | 36232 ft | 420 kts | 295° |
| 2026-04-21 01:07 | 31.88943 | -101.50221 | 36226 ft | 420 kts | 295° |
| 2026-04-21 01:07 | 31.91829 | -101.56194 | 36217 ft | 420 kts | 295° |
| 2026-04-21 01:08 | 31.94227 | -101.61164 | 36214 ft | 420 kts | 295° |
| 2026-04-21 01:08 | 31.97111 | -101.67146 | 36214 ft | 420 kts | 295° |
| 2026-04-21 01:09 | 32.00001 | -101.73135 | 36208 ft | 421 kts | 295° |
| 2026-04-21 01:09 | 32.02885 | -101.79136 | 36207 ft | 421 kts | 295° |
| 2026-04-21 01:10 | 32.05772 | -101.85153 | 36209 ft | 422 kts | 295° |
| 2026-04-21 01:10 | 32.08658 | -101.91169 | 36213 ft | 422 kts | 295° |
| 2026-04-21 01:11 | 32.11540 | -101.97195 | 36214 ft | 422 kts | 294° |
| 2026-04-21 01:11 | 32.14419 | -102.03227 | 36214 ft | 422 kts | 294° |
| 2026-04-21 01:12 | 32.17296 | -102.09254 | 36215 ft | 422 kts | 294° |
| 2026-04-21 01:12 | 32.20171 | -102.15292 | 36216 ft | 422 kts | 294° |
| 2026-04-21 01:13 | 32.23048 | -102.21326 | 36216 ft | 422 kts | 294° |
| 2026-04-21 01:13 | 32.25917 | -102.27372 | 36217 ft | 422 kts | 294° |
| 2026-04-21 01:14 | 32.28784 | -102.33415 | 36217 ft | 422 kts | 294° |
| 2026-04-21 01:14 | 32.31645 | -102.39472 | 36218 ft | 422 kts | 294° |
| 2026-04-21 01:15 | 32.34497 | -102.45529 | 36217 ft | 422 kts | 294° |
| 2026-04-21 01:15 | 32.37354 | -102.51583 | 36217 ft | 421 kts | 294° |
| 2026-04-21 01:16 | 32.40205 | -102.57636 | 36217 ft | 421 kts | 294° |
| 2026-04-21 01:16 | 32.43056 | -102.63700 | 36217 ft | 421 kts | 294° |
| 2026-04-21 01:17 | 32.45904 | -102.69762 | 36218 ft | 421 kts | 294° |
| 2026-04-21 01:17 | 32.48743 | -102.75832 | 36217 ft | 421 kts | 294° |
| 2026-04-21 01:18 | 32.51586 | -102.81905 | 36217 ft | 422 kts | 294° |
| 2026-04-21 01:18 | 32.54428 | -102.87990 | 36222 ft | 422 kts | 294° |
| 2026-04-21 01:19 | 32.57264 | -102.94075 | 36226 ft | 421 kts | 294° |
| 2026-04-21 01:19 | 32.60102 | -103.00153 | 36223 ft | 421 kts | 294° |
| 2026-04-21 01:20 | 32.62928 | -103.06237 | 36218 ft | 421 kts | 294° |
| 2026-04-21 01:20 | 32.65747 | -103.12323 | 36210 ft | 421 kts | 294° |
| 2026-04-21 01:21 | 32.68547 | -103.18380 | 36204 ft | 421 kts | 294° |
| 2026-04-21 01:21 | 32.71367 | -103.24476 | 36200 ft | 421 kts | 294° |
| 2026-04-21 01:22 | 32.74187 | -103.30576 | 36197 ft | 422 kts | 294° |
| 2026-04-21 01:22 | 32.77002 | -103.36689 | 36194 ft | 422 kts | 294° |
| 2026-04-21 01:23 | 32.79815 | -103.42804 | 36189 ft | 422 kts | 294° |
| 2026-04-21 01:23 | 32.82625 | -103.48923 | 36190 ft | 422 kts | 294° |
| 2026-04-21 01:24 | 32.85427 | -103.55048 | 36192 ft | 421 kts | 294° |
| 2026-04-21 01:24 | 32.88229 | -103.61175 | 36189 ft | 421 kts | 294° |
| 2026-04-21 01:25 | 32.91024 | -103.67297 | 36183 ft | 421 kts | 294° |
| 2026-04-21 01:25 | 32.93826 | -103.73427 | 36172 ft | 422 kts | 294° |
| 2026-04-21 01:26 | 32.96626 | -103.79568 | 36169 ft | 422 kts | 294° |
| 2026-04-21 01:26 | 32.99419 | -103.85720 | 36168 ft | 422 kts | 294° |
| 2026-04-21 01:27 | 33.02208 | -103.91875 | 36165 ft | 422 kts | 294° |
| 2026-04-21 01:27 | 33.05004 | -103.98028 | 36158 ft | 422 kts | 294° |
| 2026-04-21 01:28 | 33.07793 | -104.04190 | 36150 ft | 423 kts | 294° |
| 2026-04-21 01:28 | 33.10581 | -104.10374 | 36146 ft | 423 kts | 294° |
| 2026-04-21 01:29 | 33.13372 | -104.16559 | 36145 ft | 424 kts | 294° |
| 2026-04-21 01:29 | 33.16163 | -104.22750 | 36142 ft | 424 kts | 294° |
| 2026-04-21 01:30 | 33.18943 | -104.28943 | 36129 ft | 423 kts | 294° |
| 2026-04-21 01:30 | 33.21725 | -104.35148 | 36135 ft | 424 kts | 294° |
| 2026-04-21 01:31 | 33.24496 | -104.41360 | 36134 ft | 424 kts | 294° |
| 2026-04-21 01:31 | 33.27266 | -104.47583 | 36124 ft | 424 kts | 294° |
| 2026-04-21 01:32 | 33.30044 | -104.53804 | 36127 ft | 425 kts | 294° |
| 2026-04-21 01:32 | 33.32855 | -104.60020 | 36123 ft | 427 kts | 298° |
| 2026-04-21 01:33 | 33.36727 | -104.65394 | 36123 ft | 434 kts | 313° |
| 2026-04-21 01:33 | 33.41197 | -104.70270 | 36133 ft | 435 kts | 313° |
| 2026-04-21 01:34 | 33.45666 | -104.75151 | 36134 ft | 435 kts | 313° |
| 2026-04-21 01:34 | 33.50134 | -104.80049 | 36145 ft | 436 kts | 313° |
| 2026-04-21 01:35 | 33.54602 | -104.84955 | 36154 ft | 436 kts | 313° |
| 2026-04-21 01:35 | 33.59071 | -104.89871 | 36165 ft | 436 kts | 313° |
| 2026-04-21 01:36 | 33.63536 | -104.94793 | 36176 ft | 436 kts | 313° |
| 2026-04-21 01:36 | 33.67999 | -104.99720 | 36185 ft | 436 kts | 313° |
| 2026-04-21 01:37 | 33.72460 | -105.04649 | 36196 ft | 436 kts | 313° |
| 2026-04-21 01:37 | 33.76924 | -105.09587 | 36203 ft | 436 kts | 313° |
| 2026-04-21 01:38 | 33.81384 | -105.14535 | 36208 ft | 437 kts | 313° |
| 2026-04-21 01:38 | 33.85853 | -105.19491 | 36214 ft | 436 kts | 313° |
| 2026-04-21 01:39 | 33.90313 | -105.24443 | 36216 ft | 436 kts | 313° |
| 2026-04-21 01:39 | 33.94765 | -105.29413 | 36217 ft | 437 kts | 313° |
| 2026-04-21 01:40 | 33.99224 | -105.34386 | 36214 ft | 436 kts | 313° |
| 2026-04-21 01:40 | 34.03679 | -105.39348 | 36211 ft | 436 kts | 314° |
| 2026-04-21 01:41 | 34.08134 | -105.44328 | 36210 ft | 437 kts | 314° |
| 2026-04-21 01:41 | 34.12567 | -105.49296 | 36211 ft | 438 kts | 314° |
| 2026-04-21 01:42 | 34.17033 | -105.54300 | 36212 ft | 438 kts | 314° |
| 2026-04-21 01:42 | 34.21499 | -105.59321 | 36211 ft | 439 kts | 314° |
| 2026-04-21 01:43 | 34.25965 | -105.64346 | 36213 ft | 439 kts | 314° |
| 2026-04-21 01:43 | 34.30430 | -105.69375 | 36211 ft | 438 kts | 314° |
| 2026-04-21 01:44 | 34.34890 | -105.74412 | 36212 ft | 439 kts | 314° |
| 2026-04-21 01:44 | 34.39350 | -105.79457 | 36215 ft | 439 kts | 314° |
| 2026-04-21 01:45 | 34.43810 | -105.84499 | 36216 ft | 438 kts | 314° |
| 2026-04-21 01:45 | 34.48267 | -105.89552 | 36213 ft | 439 kts | 314° |
| 2026-04-21 01:46 | 34.52716 | -105.94616 | 36215 ft | 439 kts | 314° |
| 2026-04-21 01:46 | 34.57168 | -105.99678 | 36216 ft | 439 kts | 314° |
| 2026-04-21 01:47 | 34.61624 | -106.04745 | 36214 ft | 438 kts | 314° |
| 2026-04-21 01:47 | 34.66074 | -106.09810 | 36207 ft | 438 kts | 314° |
| 2026-04-21 01:48 | 34.70513 | -106.14875 | 36201 ft | 438 kts | 314° |
| 2026-04-21 01:48 | 34.74942 | -106.19950 | 36196 ft | 438 kts | 314° |
| 2026-04-21 01:49 | 34.79376 | -106.25032 | 36191 ft | 438 kts | 314° |
| 2026-04-21 01:49 | 34.83805 | -106.30111 | 36189 ft | 437 kts | 315° |
| 2026-04-21 01:50 | 34.88224 | -106.35194 | 36184 ft | 437 kts | 315° |
| 2026-04-21 01:50 | 34.92609 | -106.40251 | 36179 ft | 437 kts | 315° |
| 2026-04-21 01:51 | 34.96308 | -106.44514 | 36173 ft | 437 kts | 315° |
| 2026-04-21 01:51 | 35.00729 | -106.49601 | 36165 ft | 437 kts | 315° |
| 2026-04-21 01:52 | 35.07341 | -106.57259 | 36149 ft | 437 kts | 315° |
| 2026-04-21 01:53 | 35.11743 | -106.62376 | 36146 ft | 437 kts | 315° |
| 2026-04-21 01:53 | 35.16154 | -106.67494 | 36148 ft | 437 kts | 315° |
| 2026-04-21 01:54 | 35.20550 | -106.72607 | 36151 ft | 436 kts | 315° |
| 2026-04-21 01:54 | 35.24945 | -106.77724 | 36154 ft | 436 kts | 315° |
| 2026-04-21 01:55 | 35.29310 | -106.82803 | 36153 ft | 436 kts | 315° |
| 2026-04-21 01:55 | 35.33702 | -106.87925 | 36158 ft | 436 kts | 315° |
| 2026-04-21 01:56 | 35.38085 | -106.93061 | 36161 ft | 436 kts | 315° |
| 2026-04-21 01:56 | 35.42466 | -106.98203 | 36164 ft | 436 kts | 315° |
| 2026-04-21 01:57 | 35.46844 | -107.03344 | 36167 ft | 436 kts | 315° |
| 2026-04-21 01:57 | 35.51226 | -107.08483 | 36170 ft | 436 kts | 315° |
| 2026-04-21 01:58 | 35.55600 | -107.13632 | 36166 ft | 435 kts | 315° |
| 2026-04-21 01:58 | 35.59963 | -107.18792 | 36168 ft | 436 kts | 315° |
| 2026-04-21 01:59 | 35.64335 | -107.23957 | 36171 ft | 436 kts | 316° |
| 2026-04-21 01:59 | 35.68707 | -107.29117 | 36170 ft | 436 kts | 316° |
| 2026-04-21 02:00 | 35.73074 | -107.34280 | 36174 ft | 435 kts | 316° |
| 2026-04-21 02:00 | 35.77429 | -107.39462 | 36173 ft | 436 kts | 316° |
| 2026-04-21 02:01 | 35.81783 | -107.44653 | 36174 ft | 436 kts | 316° |
| 2026-04-21 02:01 | 35.86148 | -107.49842 | 36175 ft | 436 kts | 316° |
| 2026-04-21 02:02 | 35.90510 | -107.55048 | 36178 ft | 436 kts | 316° |
| 2026-04-21 02:02 | 35.94861 | -107.60250 | 36177 ft | 435 kts | 316° |
| 2026-04-21 02:03 | 35.99187 | -107.65419 | 36173 ft | 436 kts | 316° |
| 2026-04-21 02:03 | 36.03563 | -107.70662 | 36171 ft | 435 kts | 316° |
| 2026-04-21 02:04 | 36.07908 | -107.75888 | 36169 ft | 436 kts | 316° |
| 2026-04-21 02:04 | 36.12230 | -107.81082 | 36165 ft | 436 kts | 316° |
| 2026-04-21 02:05 | 36.16578 | -107.86316 | 36158 ft | 436 kts | 316° |
| 2026-04-21 02:05 | 36.20919 | -107.91559 | 36155 ft | 436 kts | 316° |
| 2026-04-21 02:06 | 36.25260 | -107.96803 | 36153 ft | 436 kts | 316° |
| 2026-04-21 02:06 | 36.29609 | -108.02051 | 36151 ft | 436 kts | 316° |
| 2026-04-21 02:07 | 36.33945 | -108.07309 | 36151 ft | 436 kts | 316° |
| 2026-04-21 02:07 | 36.38274 | -108.12574 | 36146 ft | 436 kts | 316° |
| 2026-04-21 02:08 | 36.42598 | -108.17836 | 36146 ft | 435 kts | 316° |
| 2026-04-21 02:08 | 36.46919 | -108.23100 | 36139 ft | 435 kts | 316° |
| 2026-04-21 02:09 | 36.51231 | -108.28359 | 36131 ft | 435 kts | 316° |
| 2026-04-21 02:09 | 36.55539 | -108.33627 | 36129 ft | 434 kts | 316° |
| 2026-04-21 02:10 | 36.59840 | -108.38889 | 36124 ft | 433 kts | 316° |
| 2026-04-21 02:10 | 36.64134 | -108.44158 | 36127 ft | 433 kts | 316° |
| 2026-04-21 02:11 | 36.68421 | -108.49427 | 36121 ft | 433 kts | 316° |
| 2026-04-21 02:11 | 36.72699 | -108.54690 | 36127 ft | 432 kts | 316° |
| 2026-04-21 02:12 | 36.76970 | -108.59947 | 36122 ft | 431 kts | 316° |
| 2026-04-21 02:12 | 36.81233 | -108.65213 | 36130 ft | 431 kts | 316° |
| 2026-04-21 02:13 | 36.85490 | -108.70489 | 36132 ft | 431 kts | 316° |
| 2026-04-21 02:13 | 36.89740 | -108.75749 | 36135 ft | 430 kts | 316° |
| 2026-04-21 02:14 | 36.93988 | -108.81009 | 36138 ft | 430 kts | 316° |
| 2026-04-21 02:14 | 36.98225 | -108.86273 | 36134 ft | 429 kts | 316° |
| 2026-04-21 02:15 | 37.02455 | -108.91544 | 36142 ft | 429 kts | 316° |
| 2026-04-21 02:15 | 37.06687 | -108.96822 | 36137 ft | 429 kts | 316° |
| 2026-04-21 02:16 | 37.10914 | -109.02101 | 36146 ft | 429 kts | 316° |
| 2026-04-21 02:16 | 37.15116 | -109.07351 | 36147 ft | 429 kts | 316° |
| 2026-04-21 02:17 | 37.19326 | -109.12632 | 36146 ft | 428 kts | 316° |
| 2026-04-21 02:17 | 37.23529 | -109.17915 | 36145 ft | 427 kts | 316° |
| 2026-04-21 02:18 | 37.27726 | -109.23192 | 36145 ft | 427 kts | 316° |
| 2026-04-21 02:18 | 37.31923 | -109.28465 | 36147 ft | 427 kts | 316° |
| 2026-04-21 02:19 | 37.36108 | -109.33743 | 36146 ft | 426 kts | 316° |
| 2026-04-21 02:19 | 37.40283 | -109.39017 | 36148 ft | 426 kts | 316° |
| 2026-04-21 02:20 | 37.44449 | -109.44302 | 36150 ft | 425 kts | 316° |
| 2026-04-21 02:20 | 37.48607 | -109.49579 | 36147 ft | 424 kts | 316° |
| 2026-04-21 02:21 | 37.52769 | -109.54851 | 36143 ft | 424 kts | 317° |
| 2026-04-21 02:21 | 37.56916 | -109.60135 | 36144 ft | 424 kts | 316° |
| 2026-04-21 02:22 | 37.61054 | -109.65414 | 36142 ft | 423 kts | 317° |
| 2026-04-21 02:22 | 37.65197 | -109.70694 | 36144 ft | 423 kts | 317° |
| 2026-04-21 02:23 | 37.69329 | -109.75971 | 36148 ft | 422 kts | 317° |
| 2026-04-21 02:23 | 37.73452 | -109.81254 | 36148 ft | 422 kts | 317° |
| 2026-04-21 02:24 | 37.77570 | -109.86533 | 36148 ft | 422 kts | 317° |
| 2026-04-21 02:24 | 37.81686 | -109.91823 | 36147 ft | 422 kts | 317° |
| 2026-04-21 02:25 | 37.85791 | -109.97117 | 36145 ft | 421 kts | 317° |
| 2026-04-21 02:25 | 37.89897 | -110.02404 | 36140 ft | 421 kts | 317° |
| 2026-04-21 02:26 | 37.93998 | -110.07698 | 36136 ft | 421 kts | 317° |
| 2026-04-21 02:26 | 37.98096 | -110.13007 | 36079 ft | 420 kts | 317° |
| 2026-04-21 02:27 | 38.02174 | -110.18294 | 36065 ft | 420 kts | 317° |
| 2026-04-21 02:27 | 38.06257 | -110.23596 | 36066 ft | 420 kts | 316° |
| 2026-04-21 02:28 | 38.10338 | -110.28911 | 36059 ft | 421 kts | 316° |
| 2026-04-21 02:28 | 38.14425 | -110.34223 | 36057 ft | 420 kts | 316° |
| 2026-04-21 02:29 | 38.18511 | -110.39545 | 36055 ft | 421 kts | 316° |
| 2026-04-21 02:29 | 38.22588 | -110.44880 | 36058 ft | 421 kts | 316° |
| 2026-04-21 02:30 | 38.26664 | -110.50220 | 36054 ft | 420 kts | 316° |
| 2026-04-21 02:30 | 38.30740 | -110.55563 | 36053 ft | 420 kts | 316° |
| 2026-04-21 02:31 | 38.34812 | -110.60911 | 36052 ft | 421 kts | 316° |
| 2026-04-21 02:31 | 38.38857 | -110.66244 | 36045 ft | 421 kts | 316° |
| 2026-04-21 02:32 | 38.43258 | -110.71178 | 36034 ft | 418 kts | 329° |
| 2026-04-21 02:32 | 38.48252 | -110.74981 | 36034 ft | 418 kts | 330° |
| 2026-04-21 02:33 | 38.53211 | -110.78777 | 36033 ft | 419 kts | 329° |
| 2026-04-21 02:33 | 38.58202 | -110.82624 | 36037 ft | 419 kts | 329° |
| 2026-04-21 02:34 | 38.63187 | -110.86473 | 36048 ft | 419 kts | 329° |
| 2026-04-21 02:34 | 38.68184 | -110.90322 | 36045 ft | 419 kts | 329° |
| 2026-04-21 02:35 | 38.73179 | -110.94175 | 36047 ft | 419 kts | 329° |
| 2026-04-21 02:35 | 38.78169 | -110.98038 | 36047 ft | 419 kts | 329° |
| 2026-04-21 02:36 | 38.82321 | -111.01250 | 36049 ft | 420 kts | 329° |
| 2026-04-21 02:36 | 38.87317 | -111.05133 | 36053 ft | 420 kts | 329° |
| 2026-04-21 02:37 | 38.92316 | -111.09014 | 36061 ft | 420 kts | 329° |
| 2026-04-21 02:37 | 38.97316 | -111.12904 | 36061 ft | 420 kts | 329° |
| 2026-04-21 02:38 | 39.02312 | -111.16808 | 36061 ft | 420 kts | 329° |
| 2026-04-21 02:38 | 39.07313 | -111.20710 | 36047 ft | 420 kts | 327° |
| 2026-04-21 02:38 | 39.09584 | -111.23057 | 36052 ft | 421 kts | 316° |
| 2026-04-21 02:39 | 39.11688 | -111.25686 | 35796 ft | 421 kts | 316° |
| 2026-04-21 02:39 | 39.13781 | -111.28326 | 35337 ft | 422 kts | 316° |
| 2026-04-21 02:39 | 39.15883 | -111.31001 | 34490 ft | 426 kts | 315° |
| 2026-04-21 02:39 | 39.17986 | -111.33696 | 33909 ft | 424 kts | 315° |
| 2026-04-21 02:40 | 39.20061 | -111.36360 | 33390 ft | 419 kts | 315° |
| 2026-04-21 02:40 | 39.22119 | -111.38999 | 32851 ft | 416 kts | 315° |
| 2026-04-21 02:40 | 39.24162 | -111.41611 | 32307 ft | 413 kts | 314° |
| 2026-04-21 02:40 | 39.26197 | -111.44209 | 31768 ft | 410 kts | 314° |
| 2026-04-21 02:41 | 39.28215 | -111.46787 | 31255 ft | 406 kts | 314° |
| 2026-04-21 02:41 | 39.30217 | -111.49343 | 30731 ft | 404 kts | 314° |
| 2026-04-21 02:41 | 39.32214 | -111.51891 | 30028 ft | 403 kts | 314° |
| 2026-04-21 02:41 | 39.34222 | -111.54460 | 28656 ft | 410 kts | 314° |
| 2026-04-21 02:42 | 39.36245 | -111.57057 | 27524 ft | 409 kts | 314° |
| 2026-04-21 02:42 | 39.38250 | -111.59632 | 26502 ft | 405 kts | 314° |
| 2026-04-21 02:42 | 39.40235 | -111.62179 | 25492 ft | 400 kts | 314° |
| 2026-04-21 02:42 | 39.42192 | -111.64698 | 24615 ft | 390 kts | 313° |
| 2026-04-21 02:43 | 39.44066 | -111.67115 | 24177 ft | 370 kts | 313° |
| 2026-04-21 02:43 | 39.45868 | -111.69432 | 23717 ft | 367 kts | 313° |
| 2026-04-21 02:43 | 39.47680 | -111.71770 | 23253 ft | 369 kts | 313° |
| 2026-04-21 02:43 | 39.49496 | -111.74115 | 22775 ft | 367 kts | 313° |
| 2026-04-21 02:44 | 39.51299 | -111.76442 | 22302 ft | 365 kts | 313° |
| 2026-04-21 02:44 | 39.53090 | -111.78754 | 21831 ft | 363 kts | 313° |
| 2026-04-21 02:44 | 39.54869 | -111.81057 | 21364 ft | 361 kts | 313° |
| 2026-04-21 02:44 | 39.56640 | -111.83349 | 20891 ft | 359 kts | 313° |
| 2026-04-21 02:45 | 39.58406 | -111.85633 | 20425 ft | 358 kts | 313° |
| 2026-04-21 02:45 | 39.60164 | -111.87906 | 19955 ft | 356 kts | 313° |
| 2026-04-21 02:45 | 39.61912 | -111.90171 | 19492 ft | 354 kts | 313° |
| 2026-04-21 02:45 | 39.63649 | -111.92424 | 19035 ft | 352 kts | 312° |
| 2026-04-21 02:46 | 39.65376 | -111.94667 | 18584 ft | 350 kts | 312° |
| 2026-04-21 02:46 | 39.67092 | -111.96895 | 18142 ft | 348 kts | 312° |
| 2026-04-21 02:46 | 39.68794 | -111.99107 | 17695 ft | 346 kts | 312° |
| 2026-04-21 02:46 | 39.70485 | -112.01316 | 17257 ft | 344 kts | 312° |
| 2026-04-21 02:47 | 39.72163 | -112.03510 | 16826 ft | 341 kts | 312° |
| 2026-04-21 02:47 | 39.73831 | -112.05692 | 16407 ft | 340 kts | 312° |
| 2026-04-21 02:47 | 39.75505 | -112.07852 | 15978 ft | 338 kts | 315° |
| 2026-04-21 02:47 | 39.77423 | -112.09625 | 15541 ft | 341 kts | 329° |
| 2026-04-21 02:48 | 39.79626 | -112.10771 | 15113 ft | 342 kts | 343° |
| 2026-04-21 02:48 | 39.81988 | -112.11211 | 14696 ft | 344 kts | 356° |
| 2026-04-21 02:48 | 39.84382 | -112.11311 | 14262 ft | 344 kts | 356° |
| 2026-04-21 02:48 | 39.86756 | -112.11416 | 13820 ft | 340 kts | 356° |
| 2026-04-21 02:49 | 39.89120 | -112.11529 | 13474 ft | 338 kts | 356° |
| 2026-04-21 02:49 | 39.91435 | -112.11635 | 13346 ft | 328 kts | 356° |
| 2026-04-21 02:49 | 39.93680 | -112.11736 | 13224 ft | 319 kts | 356° |
| 2026-04-21 02:49 | 39.95868 | -112.11836 | 13097 ft | 310 kts | 356° |
| 2026-04-21 02:50 | 39.97998 | -112.11894 | 12968 ft | 303 kts | 359° |
| 2026-04-21 02:50 | 40.00090 | -112.11823 | 12736 ft | 299 kts | 1° |
| 2026-04-21 02:50 | 40.02154 | -112.11688 | 12572 ft | 296 kts | 2° |
| 2026-04-21 02:50 | 40.04202 | -112.11531 | 12383 ft | 294 kts | 2° |
| 2026-04-21 02:51 | 40.06248 | -112.11373 | 12214 ft | 294 kts | 2° |
| 2026-04-21 02:51 | 40.08286 | -112.11223 | 12030 ft | 293 kts | 2° |
| 2026-04-21 02:51 | 40.10323 | -112.11083 | 11856 ft | 293 kts | 2° |
| 2026-04-21 02:51 | 40.12358 | -112.10953 | 11678 ft | 292 kts | 2° |
| 2026-04-21 02:52 | 40.14387 | -112.10829 | 11499 ft | 291 kts | 2° |
| 2026-04-21 02:52 | 40.16411 | -112.10704 | 11314 ft | 291 kts | 2° |
| 2026-04-21 02:52 | 40.18431 | -112.10577 | 11130 ft | 291 kts | 2° |
| 2026-04-21 02:52 | 40.20434 | -112.10259 | 10950 ft | 289 kts | 14° |
| 2026-04-21 02:53 | 40.22347 | -112.09469 | 10747 ft | 289 kts | 18° |
| 2026-04-21 02:53 | 40.24254 | -112.08645 | 10546 ft | 288 kts | 18° |
| 2026-04-21 02:53 | 40.26152 | -112.07828 | 10348 ft | 287 kts | 18° |
| 2026-04-21 02:53 | 40.28047 | -112.07014 | 10146 ft | 286 kts | 19° |
| 2026-04-21 02:54 | 40.29934 | -112.06199 | 9942 ft | 285 kts | 19° |
| 2026-04-21 02:54 | 40.31815 | -112.05386 | 9753 ft | 284 kts | 19° |
| 2026-04-21 02:54 | 40.33688 | -112.04577 | 9555 ft | 283 kts | 19° |
| 2026-04-21 02:54 | 40.35531 | -112.03690 | 9360 ft | 282 kts | 29° |
| 2026-04-21 02:55 | 40.37068 | -112.02139 | 9169 ft | 279 kts | 50° |
| 2026-04-21 02:55 | 40.38074 | -112.00008 | 8975 ft | 274 kts | 71° |
| 2026-04-21 02:55 | 40.38449 | -111.97621 | 8781 ft | 271 kts | 89° |
| 2026-04-21 02:55 | 40.38541 | -111.95172 | 8588 ft | 266 kts | 89° |
| 2026-04-21 02:56 | 40.38639 | -111.92790 | 8412 ft | 258 kts | 89° |
| 2026-04-21 02:56 | 40.38369 | -111.88334 | 8138 ft | 236 kts | 114° |
| 2026-04-21 02:56 | 40.37575 | -111.86528 | 7915 ft | 221 kts | 131° |
| 2026-04-21 02:57 | 40.36452 | -111.85192 | 7651 ft | 212 kts | 148° |
| 2026-04-21 02:57 | 40.35236 | -111.84112 | 7374 ft | 210 kts | 147° |
| 2026-04-21 02:57 | 40.34044 | -111.83048 | 7102 ft | 209 kts | 147° |
| 2026-04-21 02:57 | 40.32830 | -111.81966 | 6823 ft | 208 kts | 147° |
| 2026-04-21 02:58 | 40.31647 | -111.80913 | 6566 ft | 199 kts | 147° |
| 2026-04-21 02:58 | 40.30549 | -111.79935 | 6318 ft | 181 kts | 147° |
| 2026-04-21 02:58 | 40.29563 | -111.79057 | 6067 ft | 163 kts | 147° |
| 2026-04-21 02:58 | 40.28662 | -111.78256 | 5853 ft | 152 kts | 147° |
| 2026-04-21 02:59 | 40.27789 | -111.77480 | 5653 ft | 151 kts | 146° |
| 2026-04-21 02:59 | 40.26924 | -111.76712 | 5457 ft | 150 kts | 146° |
| 2026-04-21 02:59 | 40.26062 | -111.75948 | 5240 ft | 149 kts | 146° |
| 2026-04-21 02:59 | 40.25204 | -111.75183 | 5076 ft | 149 kts | 146° |
| 2026-04-21 03:00 | 40.24355 | -111.74400 | 4841 ft | 149 kts | 146° |
| 2026-04-21 03:00 | 40.23490 | -111.73658 | 4662 ft | 149 kts | 148° |
| 2026-04-21 03:00 | 40.22632 | -111.72915 | 4510 ft | 142 kts | 144° |
| 2026-04-21 03:00 | 40.21932 | -111.72280 | 4499 ft | 99 kts | 145° |
| 2026-04-21 03:01 | 40.21520 | -111.71912 | 4501 ft | 51 kts | 145° |
| 2026-04-21 03:01 | 40.21284 | -111.71705 | 4500 ft | 38 kts | 146° |
| 2026-04-21 03:01 | 40.21126 | -111.71567 | 4501 ft | 18 kts | 146° |
| 2026-04-21 03:01 | 40.21109 | -111.71458 | 4501 ft | 13 kts | 59° |
| 2026-04-21 03:02 | 40.21151 | -111.71390 | 4501 ft | 7 kts | 31° |
| 2026-04-21 03:02 | 40.21189 | -111.71403 | 4498 ft | 8 kts | 327° |
| 2026-04-21 03:02 | 40.21244 | -111.71451 | 4500 ft | 8 kts | 326° |
| 2026-04-21 03:02 | 40.21294 | -111.71496 | 4500 ft | 8 kts | 326° |
| 2026-04-21 03:03 | 40.21334 | -111.71488 | 4504 ft | 6 kts | 43° |
| 2026-04-21 03:03 | 40.21372 | -111.71419 | 4501 ft | 9 kts | 56° |
| 2026-04-21 03:03 | 40.21397 | -111.71369 | 4502 ft | 3 kts | 56° |
| 2026-04-21 03:03 | 40.21402 | -111.71361 | 4498 ft | 0 kts | 56° |